createdAt,value
2019-02-06T00:00:58.620Z,3.89
2019-02-06T00:03:30.276Z,3.91
2019-02-06T00:06:01.939Z,3.96
2019-02-06T00:08:33.662Z,3.94
2019-02-06T00:11:05.316Z,3.89
2019-02-06T00:13:37.284Z,3.90
2019-02-06T00:16:08.953Z,3.91
2019-02-06T00:18:40.641Z,3.90
2019-02-06T00:21:12.454Z,3.90
2019-02-06T00:23:44.078Z,3.92
2019-02-06T00:26:16.552Z,3.80
2019-02-06T00:28:48.632Z,3.74
2019-02-06T00:31:21.452Z,3.67
2019-02-06T00:33:53.177Z,3.72
2019-02-06T00:36:24.774Z,3.80
2019-02-06T00:38:56.704Z,3.85
2019-02-06T00:41:28.457Z,3.93
2019-02-06T00:44:00.213Z,3.96
2019-02-06T00:46:32.189Z,4.06
2019-02-06T00:49:03.792Z,3.91
2019-02-06T00:51:35.598Z,4.14
2019-02-06T00:54:07.199Z,4.18
2019-02-06T00:56:38.960Z,4.19
2019-02-06T00:59:10.868Z,4.15
2019-02-06T01:01:42.438Z,4.25
2019-02-06T01:04:14.385Z,4.14
2019-02-06T01:06:45.985Z,4.15
2019-02-06T01:09:17.550Z,4.22
2019-02-06T01:11:49.196Z,4.25
2019-02-06T01:14:21.333Z,4.31
2019-02-06T01:16:53.249Z,4.41
2019-02-06T01:19:24.905Z,4.46
2019-02-06T01:21:56.553Z,4.57
2019-02-06T01:24:28.388Z,4.55
2019-02-06T01:27:00.104Z,4.50
2019-02-06T01:29:32.532Z,4.38
2019-02-06T01:32:04.344Z,4.40
2019-02-06T01:34:36.071Z,4.49
2019-02-06T01:37:07.839Z,4.39
2019-02-06T01:39:39.480Z,4.39
2019-02-06T01:42:11.450Z,4.49
2019-02-06T01:44:44.021Z,4.46
2019-02-06T01:47:16.252Z,4.33
2019-02-06T01:49:47.844Z,4.42
2019-02-06T01:52:19.433Z,4.40
2019-02-06T01:54:51.102Z,4.32
2019-02-06T01:57:22.770Z,4.46
2019-02-06T01:59:55.003Z,4.36
2019-02-06T02:02:26.666Z,4.26
2019-02-06T02:05:00.343Z,4.32
2019-02-06T02:07:31.526Z,4.43
2019-02-06T02:10:04.896Z,4.37
2019-02-06T02:12:36.487Z,4.29
2019-02-06T02:15:14.866Z,4.40
2019-02-06T02:17:46.465Z,4.45
2019-02-06T02:20:22.072Z,4.55
2019-02-06T02:22:53.698Z,4.66
2019-02-06T02:25:25.374Z,4.50
2019-02-06T02:27:56.963Z,4.63
2019-02-06T02:30:39.624Z,4.71
2019-02-06T02:33:11.265Z,4.75
2019-02-06T02:35:42.839Z,4.80
2019-02-06T02:38:14.429Z,4.57
2019-02-06T02:40:46.071Z,4.58
2019-02-06T02:43:17.661Z,4.55
2019-02-06T02:45:49.301Z,4.74
2019-02-06T02:48:20.895Z,4.76
2019-02-06T02:50:52.549Z,4.84
2019-02-06T02:53:24.177Z,4.75
2019-02-06T02:55:55.918Z,4.87
2019-02-06T02:58:27.509Z,4.83
2019-02-06T03:01:01.807Z,4.95
2019-02-06T03:03:35.081Z,4.93
2019-02-06T03:06:06.696Z,4.93
2019-02-06T03:08:38.456Z,4.52
2019-02-06T03:11:10.027Z,4.53
2019-02-06T03:13:41.634Z,4.75
2019-02-06T03:16:13.657Z,4.74
2019-02-06T03:18:45.384Z,4.84
2019-02-06T03:21:16.983Z,4.94
2019-02-06T03:23:48.553Z,4.70
2019-02-06T03:26:21.216Z,4.82
2019-02-06T03:28:52.952Z,4.72
2019-02-06T03:31:24.695Z,4.75
2019-02-06T03:33:56.290Z,4.74
2019-02-06T03:36:39.601Z,4.65
2019-02-06T03:39:01.249Z,4.68
2019-02-06T03:41:33.102Z,4.63
2019-02-06T03:44:05.026Z,4.53
2019-02-06T03:46:36.622Z,4.75
2019-02-06T03:49:08.313Z,4.67
2019-02-06T03:51:39.980Z,4.64
2019-02-06T03:54:11.646Z,4.55
2019-02-06T03:56:43.317Z,4.59
2019-02-06T03:59:14.971Z,4.69
2019-02-06T04:01:47.044Z,4.58
2019-02-06T04:04:18.665Z,4.75
2019-02-06T04:06:55.042Z,4.64
2019-02-06T04:09:23.661Z,4.66
2019-02-06T04:11:55.283Z,4.75
2019-02-06T04:14:26.861Z,4.84
2019-02-06T04:16:58.449Z,4.60
2019-02-06T04:19:30.030Z,4.65
2019-02-06T04:22:01.617Z,4.61
2019-02-06T04:24:33.195Z,4.54
2019-02-06T04:27:04.789Z,4.57
2019-02-06T04:29:36.489Z,4.59
2019-02-06T04:32:08.070Z,4.69
2019-02-06T04:34:39.696Z,4.50
2019-02-06T04:37:23.807Z,4.55
2019-02-06T04:39:55.464Z,4.43
2019-02-06T04:42:27.133Z,4.46
2019-02-06T04:44:58.797Z,4.49
2019-02-06T04:47:30.735Z,4.57
2019-02-06T04:50:03.155Z,4.67
2019-02-06T04:52:34.930Z,4.67
2019-02-06T04:55:10.244Z,4.65
2019-02-06T04:57:41.970Z,4.76
2019-02-06T05:00:26.359Z,4.70
2019-02-06T05:02:58.022Z,4.71
2019-02-06T05:05:30.079Z,4.54
2019-02-06T05:08:01.678Z,4.40
2019-02-06T05:10:33.602Z,4.32
2019-02-06T05:13:05.187Z,4.43
2019-02-06T05:15:36.846Z,4.41
2019-02-06T05:18:08.540Z,4.30
2019-02-06T05:20:40.374Z,4.32
2019-02-06T05:23:12.236Z,4.22
2019-02-06T05:25:43.861Z,4.30
2019-02-06T05:28:17.995Z,4.31
2019-02-06T05:30:48.760Z,4.41
2019-02-06T05:33:20.439Z,4.34
2019-02-06T05:35:52.409Z,4.54
2019-02-06T05:38:24.097Z,4.49
2019-02-06T05:40:55.700Z,4.53
2019-02-06T05:43:27.291Z,4.63
2019-02-06T05:45:58.876Z,4.67
2019-02-06T05:48:30.482Z,4.67
2019-02-06T05:51:02.218Z,4.75
2019-02-06T05:53:33.880Z,4.83
2019-02-06T05:56:05.479Z,4.79
2019-02-06T05:58:37.148Z,4.86
2019-02-06T06:01:08.921Z,4.92
2019-02-06T06:03:41.591Z,4.75
2019-02-06T06:06:13.278Z,4.64
2019-02-06T06:08:44.912Z,4.73
2019-02-06T06:11:16.596Z,4.74
2019-02-06T06:13:48.250Z,4.72
2019-02-06T06:16:20.083Z,4.60
2019-02-06T06:18:51.652Z,4.72
2019-02-06T06:21:23.300Z,4.85
2019-02-06T06:23:54.931Z,4.62
2019-02-06T06:26:26.653Z,4.43
2019-02-06T06:28:58.694Z,4.58
2019-02-06T06:31:30.282Z,4.63
2019-02-06T06:34:02.252Z,4.63
2019-02-06T06:36:33.873Z,4.65
2019-02-06T06:39:07.821Z,4.81
2019-02-06T06:41:39.959Z,4.90
2019-02-06T06:44:11.597Z,4.95
2019-02-06T06:46:43.261Z,5.01
2019-02-06T06:49:14.871Z,4.60
2019-02-06T06:51:47.065Z,4.79
2019-02-06T06:54:19.081Z,4.91
2019-02-06T06:56:50.753Z,5.00
2019-02-06T06:59:22.400Z,5.04
2019-02-06T07:01:54.044Z,5.08
2019-02-06T07:04:25.790Z,5.01
2019-02-06T07:06:58.167Z,5.16
2019-02-06T07:09:29.777Z,5.19
2019-02-06T07:12:01.411Z,5.23
2019-02-06T07:14:33.264Z,5.14
2019-02-06T07:17:04.931Z,5.13
2019-02-06T07:19:37.037Z,5.18
2019-02-06T07:22:08.637Z,5.27
2019-02-06T07:24:40.536Z,5.20
2019-02-06T07:27:14.137Z,5.39
2019-02-06T07:29:45.808Z,5.42
2019-02-06T07:32:17.865Z,5.44
2019-02-06T07:34:51.506Z,5.22
2019-02-06T07:37:23.253Z,5.34
2019-02-06T07:39:54.992Z,5.37
2019-02-06T07:42:26.668Z,5.35
2019-02-06T07:44:58.564Z,5.33
2019-02-06T07:47:30.220Z,5.49
2019-02-06T07:50:02.250Z,5.53
2019-02-06T07:52:33.983Z,5.55
2019-02-06T07:55:06.927Z,5.43
2019-02-06T07:57:38.875Z,5.42
2019-02-06T08:00:10.539Z,5.47
2019-02-06T08:02:42.340Z,5.46
2019-02-06T08:05:17.934Z,5.42
2019-02-06T08:07:50.560Z,5.54
2019-02-06T08:10:32.662Z,5.47
2019-02-06T08:13:05.084Z,5.63
2019-02-06T08:15:36.659Z,5.79
2019-02-06T08:18:08.320Z,5.86
2019-02-06T08:20:40.370Z,5.77
2019-02-06T08:23:12.452Z,5.80
2019-02-06T08:25:44.249Z,5.91
2019-02-06T08:28:15.841Z,5.87
2019-02-06T08:30:47.442Z,5.98
2019-02-06T08:33:19.446Z,5.90
2019-02-06T08:35:51.088Z,5.90
2019-02-06T08:38:23.142Z,5.87
2019-02-06T08:40:54.795Z,5.96
2019-02-06T08:43:26.593Z,5.90
2019-02-06T08:45:58.426Z,6.01
2019-02-06T08:48:30.102Z,6.09
2019-02-06T08:51:01.765Z,6.01
2019-02-06T08:53:33.897Z,6.06
2019-02-06T08:56:06.455Z,5.89
2019-02-06T08:58:38.409Z,5.95
2019-02-06T09:01:10.053Z,6.07
2019-02-06T09:03:41.714Z,6.10
2019-02-06T09:06:13.711Z,6.05
2019-02-06T09:08:46.395Z,6.08
2019-02-06T09:11:18.341Z,6.17
2019-02-06T09:13:50.078Z,6.26
2019-02-06T09:16:22.719Z,6.35
2019-02-06T09:18:54.454Z,6.37
2019-02-06T09:21:26.160Z,6.25
2019-02-06T09:23:58.600Z,6.19
2019-02-06T09:26:33.976Z,6.22
2019-02-06T09:29:05.590Z,6.31
2019-02-06T09:31:38.369Z,6.47
2019-02-06T09:34:11.045Z,6.39
2019-02-06T09:36:42.719Z,6.40
2019-02-06T09:39:14.381Z,6.31
2019-02-06T09:41:46.023Z,6.27
2019-02-06T09:44:19.221Z,6.36
2019-02-06T09:46:50.832Z,6.39
2019-02-06T09:49:22.500Z,6.15
2019-02-06T09:51:54.122Z,6.31
2019-02-06T09:54:25.773Z,6.22
2019-02-06T09:56:57.435Z,6.32
2019-02-06T09:59:29.582Z,6.53
2019-02-06T10:02:01.286Z,6.39
2019-02-06T10:04:34.539Z,6.20
2019-02-06T10:07:06.136Z,6.01
2019-02-06T10:09:37.778Z,5.94
2019-02-06T10:12:11.882Z,5.88
2019-02-06T10:14:42.767Z,5.79
2019-02-06T10:17:14.423Z,5.82
2019-02-06T10:19:46.282Z,5.85
2019-02-06T10:22:18.008Z,6.05
2019-02-06T10:24:49.659Z,6.30
2019-02-06T10:27:23.996Z,6.42
2019-02-06T10:29:55.278Z,6.37
2019-02-06T10:32:26.903Z,6.32
2019-02-06T10:34:58.559Z,6.14
2019-02-06T10:37:30.204Z,6.31
2019-02-06T10:40:01.774Z,6.46
2019-02-06T10:42:33.936Z,6.64
2019-02-06T10:45:20.921Z,6.68
2019-02-06T10:47:51.420Z,6.85
2019-02-06T10:50:43.065Z,6.92
2019-02-06T10:53:14.727Z,6.78
2019-02-06T10:55:46.610Z,6.76
2019-02-06T10:58:18.385Z,6.68
2019-02-06T11:00:55.935Z,6.67
2019-02-06T11:03:27.562Z,6.68
2019-02-06T11:05:59.236Z,6.66
2019-02-06T11:08:30.842Z,6.68
2019-02-06T11:11:02.777Z,6.67
2019-02-06T11:13:34.427Z,6.58
2019-02-06T11:16:06.282Z,6.52
2019-02-06T11:18:37.875Z,6.52
2019-02-06T11:21:09.555Z,6.62
2019-02-06T11:23:41.537Z,6.65
2019-02-06T11:26:13.252Z,6.45
2019-02-06T11:28:44.844Z,6.37
2019-02-06T11:31:16.528Z,6.21
2019-02-06T11:33:48.117Z,6.45
2019-02-06T11:36:24.273Z,6.24
2019-02-06T11:38:53.526Z,6.23
2019-02-06T11:41:25.204Z,6.08
2019-02-06T11:43:56.781Z,5.95
2019-02-06T11:46:28.455Z,6.06
2019-02-06T11:49:00.399Z,6.10
2019-02-06T11:51:32.058Z,6.24
2019-02-06T11:54:03.659Z,6.29
2019-02-06T11:56:35.258Z,6.19
2019-02-06T11:59:06.928Z,6.39
2019-02-06T12:01:39.905Z,6.61
2019-02-06T12:04:11.545Z,6.70
2019-02-06T12:06:43.223Z,6.52
2019-02-06T12:09:14.858Z,6.49
2019-02-06T12:11:46.539Z,6.30
2019-02-06T12:14:18.415Z,6.37
2019-02-06T12:16:50.591Z,6.35
2019-02-06T12:19:22.200Z,6.44
2019-02-06T12:21:53.800Z,6.49
2019-02-06T12:24:25.456Z,6.44
2019-02-06T12:26:57.498Z,6.31
2019-02-06T12:29:29.075Z,6.34
2019-02-06T12:32:01.249Z,6.28
2019-02-06T12:34:33.816Z,6.28
2019-02-06T12:37:05.576Z,6.36
2019-02-06T12:39:37.415Z,6.54
2019-02-06T12:42:09.188Z,6.56
2019-02-06T12:44:41.030Z,6.71
2019-02-06T12:47:13.241Z,6.62
2019-02-06T12:49:44.896Z,6.77
2019-02-06T12:52:16.507Z,6.80
2019-02-06T12:54:48.235Z,6.79
2019-02-06T12:57:19.823Z,6.71
2019-02-06T12:59:51.688Z,6.66
2019-02-06T13:02:23.416Z,6.73
2019-02-06T13:04:55.580Z,6.68
2019-02-06T13:07:27.286Z,6.50
2019-02-06T13:09:59.014Z,6.44
2019-02-06T13:12:30.746Z,6.42
2019-02-06T13:15:02.513Z,6.23
2019-02-06T13:17:34.258Z,6.32
2019-02-06T13:20:13.380Z,6.06
2019-02-06T13:22:45.034Z,6.20
2019-02-06T13:25:16.659Z,6.26
2019-02-06T13:27:48.397Z,6.22
2019-02-06T13:30:31.405Z,6.40
2019-02-06T13:33:03.123Z,6.48
2019-02-06T13:35:34.730Z,6.47
2019-02-06T13:38:06.613Z,6.43
2019-02-06T13:40:45.478Z,6.68
2019-02-06T13:43:11.609Z,6.70
2019-02-06T13:45:46.990Z,6.53
2019-02-06T13:48:19.647Z,6.59
2019-02-06T13:50:51.242Z,6.46
2019-02-06T13:53:22.840Z,6.52
2019-02-06T13:55:54.902Z,6.61
2019-02-06T13:58:26.584Z,6.67
2019-02-06T14:00:58.230Z,6.44
2019-02-06T14:03:30.504Z,6.49
2019-02-06T14:06:02.109Z,6.55
2019-02-06T14:08:34.056Z,6.46
2019-02-06T14:11:05.693Z,6.66
2019-02-06T14:13:37.288Z,6.61
2019-02-06T14:16:08.968Z,6.44
2019-02-06T14:18:40.635Z,6.35
2019-02-06T14:21:12.658Z,6.38
2019-02-06T14:23:49.143Z,6.51
2019-02-06T14:26:40.468Z,6.45
2019-02-06T14:29:29.291Z,6.28
2019-02-06T14:32:15.720Z,6.16
2019-02-06T14:35:11.348Z,6.31
2019-02-06T14:38:04.715Z,6.36
2019-02-06T14:41:08.678Z,6.28
2019-02-06T14:44:00.515Z,6.25
2019-02-06T14:47:11.378Z,6.18
2019-02-06T14:50:18.204Z,5.96
2019-02-06T14:53:06.511Z,5.93
2019-02-06T14:55:55.164Z,5.99
2019-02-06T14:58:47.031Z,6.06
2019-02-06T15:01:48.574Z,6.01
2019-02-06T15:04:40.241Z,5.99
2019-02-06T15:07:32.269Z,5.83
2019-02-06T15:10:20.714Z,6.03
2019-02-06T15:13:12.894Z,6.02
2019-02-06T15:16:18.574Z,5.95
2019-02-06T15:18:57.952Z,5.93
2019-02-06T15:21:58.128Z,5.69
2019-02-06T15:24:34.613Z,5.55
2019-02-06T15:27:32.634Z,5.72
2019-02-06T15:30:20.910Z,5.71
2019-02-06T15:33:29.525Z,5.44
2019-02-06T15:36:42.045Z,5.38
2019-02-06T15:39:24.101Z,5.32
2019-02-06T15:42:06.384Z,5.30
2019-02-06T15:45:21.037Z,5.32
2019-02-06T15:48:21.385Z,5.41
2019-02-06T15:51:17.729Z,5.47
2019-02-06T15:54:16.340Z,5.25
2019-02-06T15:57:18.966Z,5.29
2019-02-06T16:00:27.656Z,5.07
2019-02-06T16:03:29.950Z,4.96
2019-02-06T16:06:23.518Z,5.10
2019-02-06T16:09:29.810Z,5.16
2019-02-06T16:12:20.656Z,5.07
2019-02-06T16:15:12.077Z,5.12
2019-02-06T16:18:05.484Z,5.12
2019-02-06T16:21:03.343Z,5.06
2019-02-06T16:24:00.957Z,5.01
2019-02-06T16:26:54.255Z,4.94
2019-02-06T16:30:00.249Z,5.00
2019-02-06T16:32:58.309Z,5.14
2019-02-06T16:36:07.943Z,5.14
2019-02-06T16:38:53.142Z,4.99
2019-02-06T16:41:54.798Z,5.09
2019-02-06T16:44:47.733Z,5.27
2019-02-06T16:47:51.268Z,5.07
2019-02-06T16:50:47.516Z,5.21
2019-02-06T16:53:46.784Z,5.12
2019-02-06T16:56:47.458Z,5.19
2019-02-06T16:59:33.415Z,5.13
2019-02-06T17:02:27.613Z,5.09
2019-02-06T17:05:38.951Z,5.07
2019-02-06T17:08:38.564Z,4.95
2019-02-06T17:11:31.485Z,5.16
2019-02-06T17:14:35.421Z,4.84
2019-02-06T17:17:35.712Z,4.76
2019-02-06T17:20:30.341Z,4.75
2019-02-06T17:23:15.463Z,4.41
2019-02-06T17:26:10.163Z,4.34
2019-02-06T17:29:30.364Z,4.46
2019-02-06T17:32:24.768Z,4.41
2019-02-06T17:35:13.162Z,4.44
2019-02-06T17:38:19.916Z,4.46
2019-02-06T17:41:08.254Z,4.13
2019-02-06T17:44:09.201Z,4.09
2019-02-06T17:47:17.045Z,4.01
2019-02-06T17:50:02.485Z,4.04
2019-02-06T17:53:04.454Z,4.04
2019-02-06T17:55:36.075Z,4.01
2019-02-06T17:58:08.061Z,3.96
2019-02-06T18:00:50.143Z,3.87
2019-02-06T18:03:22.474Z,3.94
2019-02-06T18:05:54.406Z,3.91
2019-02-06T18:08:26.024Z,3.77
2019-02-06T18:10:58.820Z,3.88
2019-02-06T18:13:30.614Z,3.80
2019-02-06T18:16:02.270Z,3.90
2019-02-06T18:18:34.390Z,3.84
2019-02-06T18:21:06.080Z,3.77
2019-02-06T18:23:37.958Z,3.72
2019-02-06T18:26:09.605Z,3.66
2019-02-06T18:28:41.265Z,3.76
2019-02-06T18:31:13.322Z,3.83
2019-02-06T18:33:45.451Z,3.79
2019-02-06T18:36:17.109Z,3.93
2019-02-06T18:38:49.575Z,3.76
2019-02-06T18:41:21.246Z,3.77
2019-02-06T18:43:53.203Z,3.75
2019-02-06T18:46:24.894Z,3.42
2019-02-06T18:48:56.955Z,3.38
2019-02-06T18:51:28.623Z,3.48
2019-02-06T18:54:00.238Z,3.52
2019-02-06T18:56:31.972Z,3.39
2019-02-06T18:59:03.691Z,3.32
2019-02-06T19:01:36.046Z,3.27
2019-02-06T19:04:11.229Z,3.23
2019-02-06T19:06:43.187Z,3.29
2019-02-06T19:09:15.106Z,3.38
2019-02-06T19:11:47.075Z,3.25
2019-02-06T19:14:19.253Z,3.11
2019-02-06T19:16:51.222Z,3.20
2019-02-06T19:19:25.397Z,2.99
2019-02-06T19:21:56.850Z,3.07
2019-02-06T19:24:28.735Z,3.18
2019-02-06T19:27:00.404Z,3.24
2019-02-06T19:29:32.168Z,3.22
2019-02-06T19:32:03.830Z,3.22
2019-02-06T19:34:38.578Z,3.16
2019-02-06T19:37:10.182Z,3.29
2019-02-06T19:39:41.883Z,3.19
2019-02-06T19:42:13.897Z,3.15
2019-02-06T19:44:45.923Z,3.04
2019-02-06T19:47:20.502Z,3.11
2019-02-06T19:49:52.126Z,2.99
2019-02-06T19:52:23.901Z,2.93
2019-02-06T19:54:55.893Z,3.06
2019-02-06T19:57:27.522Z,3.06
2019-02-06T19:59:59.218Z,3.15
2019-02-06T20:02:30.808Z,3.17
2019-02-06T20:05:02.482Z,3.14
2019-02-06T20:07:34.334Z,3.00
2019-02-06T20:10:13.990Z,2.99
2019-02-06T20:12:45.886Z,3.02
2019-02-06T20:15:17.822Z,3.07
2019-02-06T20:17:49.519Z,3.13
2019-02-06T20:20:26.992Z,3.03
2019-02-06T20:22:58.894Z,3.03
2019-02-06T20:25:31.041Z,2.95
2019-02-06T20:28:02.697Z,3.01
2019-02-06T20:30:34.513Z,2.99
2019-02-06T20:33:06.218Z,3.07
2019-02-06T20:35:38.238Z,3.05
2019-02-06T20:38:09.951Z,3.08
2019-02-06T20:40:44.610Z,3.15
2019-02-06T20:43:22.271Z,3.02
2019-02-06T20:45:49.991Z,3.07
2019-02-06T20:48:21.938Z,3.01
2019-02-06T20:50:53.872Z,2.97
2019-02-06T20:53:25.985Z,2.94
2019-02-06T20:55:57.673Z,2.95
2019-02-06T20:58:29.461Z,2.84
2019-02-06T21:01:01.484Z,2.91
2019-02-06T21:03:33.730Z,2.84
2019-02-06T21:06:05.535Z,2.78
2019-02-06T21:08:37.796Z,2.67
2019-02-06T21:11:09.417Z,2.66
2019-02-06T21:13:41.144Z,2.58
2019-02-06T21:16:12.809Z,2.60
2019-02-06T21:18:46.115Z,2.64
2019-02-06T21:21:17.889Z,2.68
2019-02-06T21:23:49.987Z,2.81
2019-02-06T21:26:21.589Z,2.89
2019-02-06T21:28:53.228Z,2.86
2019-02-06T21:31:24.878Z,2.95
2019-02-06T21:33:56.566Z,2.89
2019-02-06T21:36:28.161Z,2.85
2019-02-06T21:39:00.080Z,2.81
2019-02-06T21:41:32.048Z,2.94
2019-02-06T21:44:03.776Z,2.75
2019-02-06T21:46:35.478Z,2.67
2019-02-06T21:49:07.151Z,2.69
2019-02-06T21:51:39.532Z,2.69
2019-02-06T21:54:11.780Z,2.73
2019-02-06T21:56:43.426Z,2.64
2019-02-06T21:59:15.031Z,2.76
2019-02-06T22:01:46.602Z,2.92
2019-02-06T22:04:18.206Z,2.80
2019-02-06T22:06:49.879Z,2.96
2019-02-06T22:09:21.676Z,2.95
2019-02-06T22:11:53.275Z,3.01
2019-02-06T22:14:24.848Z,2.77
2019-02-06T22:16:56.456Z,2.56
2019-02-06T22:19:28.054Z,2.66
2019-02-06T22:21:59.963Z,2.91
2019-02-06T22:24:31.782Z,2.91
2019-02-06T22:27:03.430Z,2.80
2019-02-06T22:29:35.154Z,2.97
2019-02-06T22:32:06.817Z,2.99
2019-02-06T22:34:38.425Z,2.78
2019-02-06T22:37:10.279Z,2.90
2019-02-06T22:39:41.840Z,3.00
2019-02-06T22:42:14.081Z,3.11
2019-02-06T22:44:45.749Z,3.03
2019-02-06T22:47:17.405Z,3.07
2019-02-06T22:49:49.132Z,3.14
2019-02-06T22:52:22.922Z,2.90
2019-02-06T22:54:54.387Z,2.84
2019-02-06T22:57:26.147Z,3.12
2019-02-06T22:59:57.815Z,3.26
2019-02-06T23:02:29.537Z,3.30
2019-02-06T23:05:01.356Z,3.25
2019-02-06T23:07:33.733Z,3.28
2019-02-06T23:10:06.740Z,3.24
2019-02-06T23:12:38.937Z,3.39
2019-02-06T23:15:11.136Z,3.37
2019-02-06T23:17:42.801Z,3.41
2019-02-06T23:20:16.302Z,3.20
2019-02-06T23:22:48.253Z,3.30
2019-02-06T23:25:20.522Z,3.39
2019-02-06T23:27:52.291Z,3.32
2019-02-06T23:30:23.894Z,3.15
2019-02-06T23:32:55.553Z,2.96
2019-02-06T23:35:27.143Z,3.02
2019-02-06T23:37:58.816Z,3.17
2019-02-06T23:40:31.922Z,3.06
2019-02-06T23:43:03.584Z,2.96
2019-02-06T23:45:35.257Z,3.17
2019-02-06T23:48:06.914Z,2.92
2019-02-06T23:50:38.654Z,2.87
2019-02-06T23:53:10.475Z,2.97
2019-02-06T23:55:42.041Z,3.03
2019-02-06T23:58:14.208Z,3.01
